sensor_id;sensor_type;location;lat;lon;timestamp;pressure;altitude;pressure_sealevel;temperature;humidity
74958;BME280;63741;42.624;26.276;2023-08-06T00:01:47;98479.09;;;25.38;74.74
74958;BME280;63741;42.624;26.276;2023-08-06T00:04:14;98471.38;;;25.30;75.23
74958;BME280;63741;42.624;26.276;2023-08-06T00:06:41;98470.38;;;25.19;75.70
74958;BME280;63741;42.624;26.276;2023-08-06T00:09:08;98469.56;;;25.35;75.09
74958;BME280;63741;42.624;26.276;2023-08-06T00:11:35;98465.09;;;25.41;74.48
74958;BME280;63741;42.624;26.276;2023-08-06T00:14:02;98462.75;;;25.33;75.15
74958;BME280;63741;42.624;26.276;2023-08-06T00:16:29;98473.03;;;25.48;74.66
74958;BME280;63741;42.624;26.276;2023-08-06T00:18:56;98474.13;;;25.46;74.38
74958;BME280;63741;42.624;26.276;2023-08-06T00:21:23;98476.94;;;25.40;74.50
74958;BME280;63741;42.624;26.276;2023-08-06T00:23:50;98477.06;;;25.45;74.04
74958;BME280;63741;42.624;26.276;2023-08-06T00:26:18;98478.41;;;25.59;73.88
74958;BME280;63741;42.624;26.276;2023-08-06T00:28:46;98465.69;;;25.60;73.34
74958;BME280;63741;42.624;26.276;2023-08-06T00:31:13;98460.56;;;25.46;73.65
74958;BME280;63741;42.624;26.276;2023-08-06T00:33:40;98450.19;;;25.27;74.40
74958;BME280;63741;42.624;26.276;2023-08-06T00:36:07;98450.94;;;25.39;73.09
74958;BME280;63741;42.624;26.276;2023-08-06T00:38:34;98445.06;;;25.13;74.80
74958;BME280;63741;42.624;26.276;2023-08-06T00:41:01;98451.22;;;25.37;73.72
74958;BME280;63741;42.624;26.276;2023-08-06T00:43:28;98441.94;;;25.33;73.94
74958;BME280;63741;42.624;26.276;2023-08-06T00:45:55;98444.97;;;25.37;73.65
74958;BME280;63741;42.624;26.276;2023-08-06T00:48:23;98442.41;;;25.30;73.89
74958;BME280;63741;42.624;26.276;2023-08-06T00:50:49;98436.34;;;25.23;73.00
74958;BME280;63741;42.624;26.276;2023-08-06T00:53:16;98444.78;;;25.27;73.92
74958;BME280;63741;42.624;26.276;2023-08-06T00:55:44;98435.19;;;25.19;73.88
74958;BME280;63741;42.624;26.276;2023-08-06T00:58:14;98434.84;;;25.15;74.52
74958;BME280;63741;42.624;26.276;2023-08-06T01:00:42;98424.16;;;25.09;74.32
74958;BME280;63741;42.624;26.276;2023-08-06T01:03:09;98421.88;;;25.17;74.25
74958;BME280;63741;42.624;26.276;2023-08-06T01:05:36;98436.03;;;25.36;73.29
74958;BME280;63741;42.624;26.276;2023-08-06T01:13:46;98428.53;;;25.10;74.68
74958;BME280;63741;42.624;26.276;2023-08-06T01:16:16;98428.78;;;25.25;74.21
74958;BME280;63741;42.624;26.276;2023-08-06T01:18:46;98421.88;;;25.17;74.04
74958;BME280;63741;42.624;26.276;2023-08-06T01:21:17;98415.59;;;25.29;73.30
74958;BME280;63741;42.624;26.276;2023-08-06T01:23:45;98418.44;;;25.22;73.58
74958;BME280;63741;42.624;26.276;2023-08-06T01:26:21;98420.94;;;25.40;73.38
74958;BME280;63741;42.624;26.276;2023-08-06T01:29:02;98420.53;;;25.49;72.44
74958;BME280;63741;42.624;26.276;2023-08-06T01:31:36;98419.28;;;25.39;73.33
74958;BME280;63741;42.624;26.276;2023-08-06T01:34:17;98420.53;;;25.49;72.44
74958;BME280;63741;42.624;26.276;2023-08-06T01:36:48;98417.00;;;25.48;72.50
74958;BME280;63741;42.624;26.276;2023-08-06T01:39:15;98424.47;;;25.58;71.55
74958;BME280;63741;42.624;26.276;2023-08-06T01:41:42;98398.88;;;25.49;71.39
74958;BME280;63741;42.624;26.276;2023-08-06T01:44:09;98404.94;;;25.39;71.59
74958;BME280;63741;42.624;26.276;2023-08-06T01:46:36;98408.72;;;25.55;70.55
74958;BME280;63741;42.624;26.276;2023-08-06T01:49:03;98400.75;;;25.48;69.76
74958;BME280;63741;42.624;26.276;2023-08-06T01:51:30;98394.25;;;25.49;70.05
74958;BME280;63741;42.624;26.276;2023-08-06T01:53:58;98400.00;;;25.36;70.50
74958;BME280;63741;42.624;26.276;2023-08-06T01:56:25;98399.84;;;25.26;70.59
74958;BME280;63741;42.624;26.276;2023-08-06T01:58:52;98398.03;;;25.31;69.94
74958;BME280;63741;42.624;26.276;2023-08-06T02:01:19;98389.03;;;25.42;69.33
74958;BME280;63741;42.624;26.276;2023-08-06T02:03:46;98383.28;;;25.39;69.00
74958;BME280;63741;42.624;26.276;2023-08-06T02:06:13;98386.69;;;25.17;70.09
74958;BME280;63741;42.624;26.276;2023-08-06T02:08:40;98386.81;;;25.23;69.93
74958;BME280;63741;42.624;26.276;2023-08-06T02:11:07;98389.94;;;25.03;70.91
74958;BME280;63741;42.624;26.276;2023-08-06T02:13:34;98382.41;;;25.05;70.90
74958;BME280;63741;42.624;26.276;2023-08-06T02:16:01;98373.97;;;25.18;70.50
74958;BME280;63741;42.624;26.276;2023-08-06T02:18:28;98377.75;;;25.17;70.52
74958;BME280;63741;42.624;26.276;2023-08-06T02:20:58;98388.16;;;25.08;70.62
74958;BME280;63741;42.624;26.276;2023-08-06T02:23:26;98386.94;;;25.16;70.92
74958;BME280;63741;42.624;26.276;2023-08-06T02:26:03;98385.53;;;25.13;70.66
74958;BME280;63741;42.624;26.276;2023-08-06T02:28:31;98381.97;;;25.25;69.86
74958;BME280;63741;42.624;26.276;2023-08-06T02:30:59;98382.94;;;25.18;70.19
74958;BME280;63741;42.624;26.276;2023-08-06T02:33:26;98374.09;;;25.23;69.81
74958;BME280;63741;42.624;26.276;2023-08-06T02:36:01;98370.88;;;25.26;69.78
74958;BME280;63741;42.624;26.276;2023-08-06T02:38:31;98366.50;;;25.08;70.07
74958;BME280;63741;42.624;26.276;2023-08-06T02:40:58;98368.47;;;25.13;70.24
74958;BME280;63741;42.624;26.276;2023-08-06T02:43:25;98366.50;;;25.08;70.42
74958;BME280;63741;42.624;26.276;2023-08-06T02:45:56;98368.19;;;25.09;70.52
74958;BME280;63741;42.624;26.276;2023-08-06T02:48:24;98369.25;;;24.96;70.61
74958;BME280;63741;42.624;26.276;2023-08-06T02:50:52;98361.38;;;24.95;70.92
74958;BME280;63741;42.624;26.276;2023-08-06T02:53:19;98368.88;;;25.05;70.27
74958;BME280;63741;42.624;26.276;2023-08-06T02:55:48;98359.81;;;24.99;70.17
74958;BME280;63741;42.624;26.276;2023-08-06T02:58:19;98356.31;;;24.99;70.41
74958;BME280;63741;42.624;26.276;2023-08-06T03:01:01;98350.88;;;24.99;70.25
74958;BME280;63741;42.624;26.276;2023-08-06T03:03:33;98345.72;;;24.97;70.22
74958;BME280;63741;42.624;26.276;2023-08-06T03:06:02;98350.72;;;24.88;70.24
74958;BME280;63741;42.624;26.276;2023-08-06T03:08:44;98351.56;;;24.77;71.14
74958;BME280;63741;42.624;26.276;2023-08-06T03:11:11;98339.38;;;24.75;70.80
74958;BME280;63741;42.624;26.276;2023-08-06T03:13:39;98328.56;;;24.75;70.80
74958;BME280;63741;42.624;26.276;2023-08-06T03:16:07;98327.66;;;24.86;69.84
74958;BME280;63741;42.624;26.276;2023-08-06T03:18:33;98333.06;;;24.86;69.88
74958;BME280;63741;42.624;26.276;2023-08-06T03:21:04;98340.31;;;24.97;69.56
74958;BME280;63741;42.624;26.276;2023-08-06T03:23:32;98349.31;;;24.86;70.21
74958;BME280;63741;42.624;26.276;2023-08-06T03:26:03;98338.44;;;24.98;69.39
74958;BME280;63741;42.624;26.276;2023-08-06T03:28:31;98335.81;;;25.03;69.03
74958;BME280;63741;42.624;26.276;2023-08-06T03:31:03;98338.34;;;24.92;69.39
74958;BME280;63741;42.624;26.276;2023-08-06T03:33:42;98339.72;;;24.95;69.18
74958;BME280;63741;42.624;26.276;2023-08-06T03:36:14;98334.66;;;24.99;68.81
74958;BME280;63741;42.624;26.276;2023-08-06T03:38:42;98347.53;;;24.91;69.09
74958;BME280;63741;42.624;26.276;2023-08-06T03:41:11;98344.66;;;24.98;68.68
74958;BME280;63741;42.624;26.276;2023-08-06T03:43:38;98348.59;;;25.07;68.45
74958;BME280;63741;42.624;26.276;2023-08-06T03:46:10;98350.13;;;24.86;69.19
74958;BME280;63741;42.624;26.276;2023-08-06T03:48:38;98351.09;;;25.09;67.87
74958;BME280;63741;42.624;26.276;2023-08-06T03:51:05;98352.53;;;25.00;68.41
74958;BME280;63741;42.624;26.276;2023-08-06T03:53:32;98351.44;;;25.12;67.50
74958;BME280;63741;42.624;26.276;2023-08-06T03:55:59;98347.44;;;25.15;67.51
74958;BME280;63741;42.624;26.276;2023-08-06T03:58:29;98339.41;;;24.91;68.14
74958;BME280;63741;42.624;26.276;2023-08-06T04:01:00;98342.25;;;25.13;67.55
74958;BME280;63741;42.624;26.276;2023-08-06T04:03:37;98329.78;;;25.12;67.74
74958;BME280;63741;42.624;26.276;2023-08-06T04:06:06;98339.47;;;25.25;67.86
74958;BME280;63741;42.624;26.276;2023-08-06T04:08:33;98336.28;;;25.28;67.60
74958;BME280;63741;42.624;26.276;2023-08-06T04:11:02;98335.00;;;25.02;68.35
74958;BME280;63741;42.624;26.276;2023-08-06T04:13:29;98330.16;;;25.04;68.76
74958;BME280;63741;42.624;26.276;2023-08-06T04:16:03;98320.84;;;25.29;68.48
74958;BME280;63741;42.624;26.276;2023-08-06T04:18:31;98324.22;;;25.19;69.48
74958;BME280;63741;42.624;26.276;2023-08-06T04:20:58;98323.16;;;25.20;69.75
74958;BME280;63741;42.624;26.276;2023-08-06T04:23:25;98323.22;;;25.25;70.42
74958;BME280;63741;42.624;26.276;2023-08-06T04:25:58;98323.81;;;25.10;71.71
74958;BME280;63741;42.624;26.276;2023-08-06T04:28:30;98331.84;;;25.22;71.44
74958;BME280;63741;42.624;26.276;2023-08-06T04:30:59;98326.84;;;25.31;71.73
74958;BME280;63741;42.624;26.276;2023-08-06T04:33:26;98320.44;;;25.37;71.51
74958;BME280;63741;42.624;26.276;2023-08-06T04:35:56;98343.06;;;25.48;72.25
74958;BME280;63741;42.624;26.276;2023-08-06T04:38:26;98342.94;;;25.54;73.41
74958;BME280;63741;42.624;26.276;2023-08-06T04:40:54;98342.66;;;25.39;74.52
74958;BME280;63741;42.624;26.276;2023-08-06T04:43:22;98347.69;;;25.47;74.72
74958;BME280;63741;42.624;26.276;2023-08-06T04:45:53;98335.03;;;25.53;75.14
74958;BME280;63741;42.624;26.276;2023-08-06T04:48:21;98332.25;;;25.64;74.83
74958;BME280;63741;42.624;26.276;2023-08-06T04:50:50;98331.31;;;25.76;74.73
74958;BME280;63741;42.624;26.276;2023-08-06T04:53:17;98323.38;;;25.69;74.83
74958;BME280;63741;42.624;26.276;2023-08-06T04:55:44;98323.63;;;25.51;76.08
74958;BME280;63741;42.624;26.276;2023-08-06T04:58:12;98319.50;;;25.65;76.02
74958;BME280;63741;42.624;26.276;2023-08-06T05:00:39;98308.09;;;25.80;74.93
74958;BME280;63741;42.624;26.276;2023-08-06T05:03:06;98307.94;;;25.86;75.46
74958;BME280;63741;42.624;26.276;2023-08-06T05:05:34;98310.50;;;25.98;74.79
74958;BME280;63741;42.624;26.276;2023-08-06T05:08:01;98313.69;;;25.90;76.01
74958;BME280;63741;42.624;26.276;2023-08-06T05:10:27;98311.78;;;25.90;75.07
74958;BME280;63741;42.624;26.276;2023-08-06T05:12:54;98317.59;;;25.99;75.58
74958;BME280;63741;42.624;26.276;2023-08-06T05:15:22;98313.69;;;26.12;75.41
74958;BME280;63741;42.624;26.276;2023-08-06T05:17:48;98310.72;;;26.13;74.62
74958;BME280;63741;42.624;26.276;2023-08-06T05:20:15;98309.19;;;26.01;75.88
74958;BME280;63741;42.624;26.276;2023-08-06T05:22:43;98315.44;;;26.01;75.39
74958;BME280;63741;42.624;26.276;2023-08-06T05:25:13;98315.25;;;26.08;75.09
74958;BME280;63741;42.624;26.276;2023-08-06T05:27:40;98315.56;;;26.33;72.38
74958;BME280;63741;42.624;26.276;2023-08-06T05:30:08;98307.66;;;26.49;72.48
74958;BME280;63741;42.624;26.276;2023-08-06T05:32:35;98315.47;;;26.45;73.33
74958;BME280;63741;42.624;26.276;2023-08-06T05:35:02;98324.03;;;26.59;72.37
74958;BME280;63741;42.624;26.276;2023-08-06T05:37:29;98308.06;;;26.62;72.30
74958;BME280;63741;42.624;26.276;2023-08-06T05:39:56;98308.50;;;26.81;71.91
74958;BME280;63741;42.624;26.276;2023-08-06T05:42:23;98302.28;;;26.81;70.62
74958;BME280;63741;42.624;26.276;2023-08-06T05:44:50;98303.41;;;27.12;69.22
74958;BME280;63741;42.624;26.276;2023-08-06T05:47:17;98309.13;;;27.15;69.21
74958;BME280;63741;42.624;26.276;2023-08-06T05:49:46;98308.00;;;27.11;69.20
74958;BME280;63741;42.624;26.276;2023-08-06T05:52:13;98296.16;;;27.23;67.64
74958;BME280;63741;42.624;26.276;2023-08-06T05:54:40;98296.66;;;27.57;65.82
74958;BME280;63741;42.624;26.276;2023-08-06T05:57:07;98299.59;;;27.50;66.58
74958;BME280;63741;42.624;26.276;2023-08-06T05:59:34;98310.59;;;27.28;67.12
74958;BME280;63741;42.624;26.276;2023-08-06T06:02:01;98306.81;;;27.71;64.10
74958;BME280;63741;42.624;26.276;2023-08-06T06:04:28;98299.13;;;27.58;66.57
74958;BME280;63741;42.624;26.276;2023-08-06T06:06:55;98301.69;;;27.75;65.70
74958;BME280;63741;42.624;26.276;2023-08-06T06:09:22;98294.47;;;27.54;66.24
74958;BME280;63741;42.624;26.276;2023-08-06T06:11:49;98292.28;;;27.51;64.58
74958;BME280;63741;42.624;26.276;2023-08-06T06:14:23;98283.84;;;27.47;66.20
74958;BME280;63741;42.624;26.276;2023-08-06T06:16:50;98276.13;;;27.29;66.83
74958;BME280;63741;42.624;26.276;2023-08-06T06:19:17;98291.22;;;27.52;66.27
74958;BME280;63741;42.624;26.276;2023-08-06T06:21:44;98291.25;;;27.62;66.31
74958;BME280;63741;42.624;26.276;2023-08-06T06:24:11;98291.59;;;27.70;66.33
74958;BME280;63741;42.624;26.276;2023-08-06T06:26:38;98281.88;;;27.75;64.12
74958;BME280;63741;42.624;26.276;2023-08-06T06:29:05;98284.69;;;27.53;65.28
74958;BME280;63741;42.624;26.276;2023-08-06T06:31:34;98284.16;;;27.51;64.87
74958;BME280;63741;42.624;26.276;2023-08-06T06:34:01;98287.75;;;28.09;63.98
74958;BME280;63741;42.624;26.276;2023-08-06T06:36:28;98284.16;;;27.98;63.35
74958;BME280;63741;42.624;26.276;2023-08-06T06:38:54;98285.84;;;28.09;62.05
74958;BME280;63741;42.624;26.276;2023-08-06T06:41:21;98282.25;;;27.99;63.60
74958;BME280;63741;42.624;26.276;2023-08-06T06:43:48;98285.66;;;28.31;62.15
74958;BME280;63741;42.624;26.276;2023-08-06T06:46:15;98281.75;;;28.12;62.01
74958;BME280;63741;42.624;26.276;2023-08-06T06:48:42;98292.63;;;28.12;61.65
74958;BME280;63741;42.624;26.276;2023-08-06T06:51:09;98284.91;;;27.88;63.29
74958;BME280;63741;42.624;26.276;2023-08-06T06:53:36;98298.31;;;28.00;62.50
74958;BME280;63741;42.624;26.276;2023-08-06T06:56:04;98294.81;;;28.15;62.39
74958;BME280;63741;42.624;26.276;2023-08-06T06:58:32;98304.28;;;28.02;62.11
74958;BME280;63741;42.624;26.276;2023-08-06T07:00:59;98308.97;;;28.17;60.85
74958;BME280;63741;42.624;26.276;2023-08-06T07:03:26;98307.66;;;28.30;62.05
74958;BME280;63741;42.624;26.276;2023-08-06T07:05:57;98303.72;;;28.63;59.96
74958;BME280;63741;42.624;26.276;2023-08-06T07:08:28;98294.19;;;28.60;59.97
74958;BME280;63741;42.624;26.276;2023-08-06T07:11:06;98291.00;;;29.09;60.18
74958;BME280;63741;42.624;26.276;2023-08-06T07:13:34;98288.56;;;29.03;58.34
74958;BME280;63741;42.624;26.276;2023-08-06T07:16:01;98311.16;;;29.18;58.83
74958;BME280;63741;42.624;26.276;2023-08-06T07:18:28;98307.59;;;29.33;58.52
74958;BME280;63741;42.624;26.276;2023-08-06T07:20:55;98302.72;;;29.30;57.42
74958;BME280;63741;42.624;26.276;2023-08-06T07:23:24;98303.44;;;28.64;59.75
74958;BME280;63741;42.624;26.276;2023-08-06T07:25:52;98303.13;;;28.51;59.01
74958;BME280;63741;42.624;26.276;2023-08-06T07:28:19;98307.19;;;28.48;60.26
74958;BME280;63741;42.624;26.276;2023-08-06T07:30:46;98304.25;;;28.70;60.59
74958;BME280;63741;42.624;26.276;2023-08-06T07:33:13;98302.91;;;28.73;59.17
74958;BME280;63741;42.624;26.276;2023-08-06T07:35:40;98307.84;;;28.76;60.08
74958;BME280;63741;42.624;26.276;2023-08-06T07:38:07;98299.38;;;28.67;58.32
74958;BME280;63741;42.624;26.276;2023-08-06T07:40:36;98296.38;;;28.79;59.05
74958;BME280;63741;42.624;26.276;2023-08-06T07:43:04;98291.53;;;29.01;58.67
74958;BME280;63741;42.624;26.276;2023-08-06T07:45:35;98294.25;;;28.96;58.16
74958;BME280;63741;42.624;26.276;2023-08-06T07:48:03;98296.94;;;28.91;58.71
74958;BME280;63741;42.624;26.276;2023-08-06T07:50:30;98305.66;;;28.83;59.66
74958;BME280;63741;42.624;26.276;2023-08-06T07:52:57;98315.22;;;29.01;58.90
74958;BME280;63741;42.624;26.276;2023-08-06T07:55:25;98306.75;;;28.87;58.85
74958;BME280;63741;42.624;26.276;2023-08-06T07:57:53;98312.19;;;28.87;58.90
74958;BME280;63741;42.624;26.276;2023-08-06T08:00:20;98311.97;;;28.99;58.37
74958;BME280;63741;42.624;26.276;2023-08-06T08:02:47;98322.31;;;29.07;59.44
74958;BME280;63741;42.624;26.276;2023-08-06T08:05:15;98325.59;;;29.29;56.12
74958;BME280;63741;42.624;26.276;2023-08-06T08:07:42;98334.59;;;29.55;54.40
74958;BME280;63741;42.624;26.276;2023-08-06T08:10:10;98326.94;;;29.67;54.10
74958;BME280;63741;42.624;26.276;2023-08-06T08:12:37;98327.69;;;29.93;53.58
74958;BME280;63741;42.624;26.276;2023-08-06T08:15:04;98317.25;;;30.26;52.49
74958;BME280;63741;42.624;26.276;2023-08-06T08:17:31;98307.66;;;30.39;53.42
74958;BME280;63741;42.624;26.276;2023-08-06T08:19:58;98294.19;;;29.88;53.69
74958;BME280;63741;42.624;26.276;2023-08-06T08:22:25;98268.50;;;30.04;54.18
74958;BME280;63741;42.624;26.276;2023-08-06T08:24:52;98278.81;;;30.28;53.99
74958;BME280;63741;42.624;26.276;2023-08-06T08:27:19;98271.81;;;30.56;53.66
74958;BME280;63741;42.624;26.276;2023-08-06T08:29:46;98284.91;;;30.98;53.47
74958;BME280;63741;42.624;26.276;2023-08-06T08:32:13;98290.03;;;30.65;53.33
74958;BME280;63741;42.624;26.276;2023-08-06T08:34:40;98293.59;;;30.61;52.91
74958;BME280;63741;42.624;26.276;2023-08-06T08:37:07;98282.13;;;30.64;52.30
74958;BME280;63741;42.624;26.276;2023-08-06T08:39:34;98273.69;;;30.60;52.64
74958;BME280;63741;42.624;26.276;2023-08-06T08:42:01;98243.94;;;30.04;54.47
74958;BME280;63741;42.624;26.276;2023-08-06T08:44:30;98237.56;;;29.64;55.40
74958;BME280;63741;42.624;26.276;2023-08-06T08:46:59;98232.41;;;29.48;54.66
74958;BME280;63741;42.624;26.276;2023-08-06T08:49:27;98237.56;;;29.59;55.26
74958;BME280;63741;42.624;26.276;2023-08-06T08:51:56;98266.16;;;29.46;54.34
74958;BME280;63741;42.624;26.276;2023-08-06T08:54:25;98395.84;;;29.17;54.62
74958;BME280;63741;42.624;26.276;2023-08-06T08:56:52;98408.34;;;24.89;79.89
74958;BME280;63741;42.624;26.276;2023-08-06T08:59:21;98426.81;;;24.52;74.33
74958;BME280;63741;42.624;26.276;2023-08-06T09:01:49;98297.69;;;24.18;71.17
74958;BME280;63741;42.624;26.276;2023-08-06T09:04:20;98290.69;;;24.46;71.35
74958;BME280;63741;42.624;26.276;2023-08-06T09:06:50;98274.81;;;24.78;69.93
74958;BME280;63741;42.624;26.276;2023-08-06T09:09:26;98252.78;;;24.01;73.73
74958;BME280;63741;42.624;26.276;2023-08-06T09:11:55;98230.38;;;23.88;77.02
74958;BME280;63741;42.624;26.276;2023-08-06T09:14:26;98251.81;;;24.07;78.92
74958;BME280;63741;42.624;26.276;2023-08-06T09:16:54;98258.22;;;24.29;77.20
74958;BME280;63741;42.624;26.276;2023-08-06T09:19:21;98255.72;;;24.39;79.40
74958;BME280;63741;42.624;26.276;2023-08-06T09:21:51;98241.28;;;25.46;72.51
74958;BME280;63741;42.624;26.276;2023-08-06T09:24:18;98211.72;;;26.06;70.59
74958;BME280;63741;42.624;26.276;2023-08-06T09:26:45;98196.69;;;26.47;67.87
74958;BME280;63741;42.624;26.276;2023-08-06T09:29:12;98216.16;;;26.66;67.94
74958;BME280;63741;42.624;26.276;2023-08-06T09:34:18;98209.66;;;27.04;67.65
74958;BME280;63741;42.624;26.276;2023-08-06T09:36:53;98203.84;;;26.90;66.87
74958;BME280;63741;42.624;26.276;2023-08-06T09:39:30;98187.94;;;26.67;68.80
74958;BME280;63741;42.624;26.276;2023-08-06T09:41:58;98201.16;;;25.65;72.66
74958;BME280;63741;42.624;26.276;2023-08-06T09:44:27;98202.56;;;25.46;74.81
74958;BME280;63741;42.624;26.276;2023-08-06T09:46:56;98178.50;;;25.28;77.64
74958;BME280;63741;42.624;26.276;2023-08-06T09:52:05;98190.19;;;25.33;75.12
74958;BME280;63741;42.624;26.276;2023-08-06T09:54:32;98193.34;;;25.47;76.75
74958;BME280;63741;42.624;26.276;2023-08-06T09:57:01;98203.31;;;25.41;75.33
74958;BME280;63741;42.624;26.276;2023-08-06T09:59:28;98205.28;;;25.29;73.12
74958;BME280;63741;42.624;26.276;2023-08-06T10:01:55;98224.50;;;25.11;75.56
74958;BME280;63741;42.624;26.276;2023-08-06T10:04:23;98240.47;;;24.79;76.05
74958;BME280;63741;42.624;26.276;2023-08-06T10:06:56;98233.19;;;24.79;77.16
74958;BME280;63741;42.624;26.276;2023-08-06T10:09:24;98228.56;;;24.63;79.29
74958;BME280;63741;42.624;26.276;2023-08-06T10:11:51;98236.03;;;24.73;76.00
74958;BME280;63741;42.624;26.276;2023-08-06T10:14:28;98244.53;;;24.48;78.02
74958;BME280;63741;42.624;26.276;2023-08-06T10:16:57;98257.19;;;24.76;78.01
74958;BME280;63741;42.624;26.276;2023-08-06T10:19:26;98252.84;;;24.75;77.43
74958;BME280;63741;42.624;26.276;2023-08-06T10:22:17;98252.03;;;24.74;77.31
74958;BME280;63741;42.624;26.276;2023-08-06T10:24:51;98273.97;;;24.78;77.52
74958;BME280;63741;42.624;26.276;2023-08-06T10:27:30;98280.19;;;24.61;78.26
74958;BME280;63741;42.624;26.276;2023-08-06T10:30:26;98301.44;;;24.69;78.54
74958;BME280;63741;42.624;26.276;2023-08-06T10:33:01;98305.22;;;24.85;76.57
74958;BME280;63741;42.624;26.276;2023-08-06T10:35:30;98289.56;;;25.04;74.46
74958;BME280;63741;42.624;26.276;2023-08-06T10:38:25;98281.97;;;25.18;74.44
74958;BME280;63741;42.624;26.276;2023-08-06T10:45:54;98288.09;;;25.81;76.05
74958;BME280;63741;42.624;26.276;2023-08-06T10:48:38;98293.81;;;26.77;68.40
74958;BME280;63741;42.624;26.276;2023-08-06T10:51:11;98305.69;;;26.98;67.65
74958;BME280;63741;42.624;26.276;2023-08-06T10:53:42;98316.91;;;27.07;68.07
74958;BME280;63741;42.624;26.276;2023-08-06T10:58:46;98323.53;;;26.89;64.69
74958;BME280;63741;42.624;26.276;2023-08-06T11:01:14;98327.09;;;26.94;65.36
74958;BME280;63741;42.624;26.276;2023-08-06T11:03:45;98330.34;;;26.96;66.15
74958;BME280;63741;42.624;26.276;2023-08-06T11:06:17;98323.41;;;27.06;64.04
74958;BME280;63741;42.624;26.276;2023-08-06T11:08:54;98310.53;;;27.23;65.05
74958;BME280;63741;42.624;26.276;2023-08-06T11:11:22;98308.50;;;27.40;63.63
74958;BME280;63741;42.624;26.276;2023-08-06T11:13:50;98305.53;;;27.42;60.30
74958;BME280;63741;42.624;26.276;2023-08-06T11:16:24;98303.63;;;27.42;61.28
74958;BME280;63741;42.624;26.276;2023-08-06T11:18:52;98313.28;;;27.65;61.12
74958;BME280;63741;42.624;26.276;2023-08-06T11:21:21;98341.47;;;27.91;59.65
74958;BME280;63741;42.624;26.276;2023-08-06T11:23:48;98346.19;;;28.11;57.59
74958;BME280;63741;42.624;26.276;2023-08-06T11:26:21;98341.66;;;28.27;61.22
74958;BME280;63741;42.624;26.276;2023-08-06T11:28:50;98334.31;;;28.28;57.52
74958;BME280;63741;42.624;26.276;2023-08-06T11:31:23;98338.19;;;28.42;58.95
74958;BME280;63741;42.624;26.276;2023-08-06T11:33:54;98347.28;;;28.78;59.25
74958;BME280;63741;42.624;26.276;2023-08-06T11:36:36;98353.63;;;29.45;57.46
74958;BME280;63741;42.624;26.276;2023-08-06T11:39:06;98346.56;;;29.08;54.10
74958;BME280;63741;42.624;26.276;2023-08-06T11:41:35;98352.81;;;29.14;55.61
74958;BME280;63741;42.624;26.276;2023-08-06T11:44:05;98368.63;;;29.53;56.54
74958;BME280;63741;42.624;26.276;2023-08-06T11:46:51;98355.00;;;29.83;56.39
74958;BME280;63741;42.624;26.276;2023-08-06T11:49:40;98369.16;;;29.90;54.59
74958;BME280;63741;42.624;26.276;2023-08-06T11:52:13;98386.38;;;29.70;53.20
74958;BME280;63741;42.624;26.276;2023-08-06T11:54:41;98397.72;;;29.01;56.19
74958;BME280;63741;42.624;26.276;2023-08-06T11:57:08;98453.06;;;28.59;58.31
74958;BME280;63741;42.624;26.276;2023-08-06T11:59:40;98410.28;;;27.97;56.30
74958;BME280;63741;42.624;26.276;2023-08-06T12:02:08;98423.47;;;28.20;56.71
74958;BME280;63741;42.624;26.276;2023-08-06T12:04:59;98416.41;;;27.77;56.17
74958;BME280;63741;42.624;26.276;2023-08-06T12:07:29;98405.75;;;27.76;56.29
74958;BME280;63741;42.624;26.276;2023-08-06T12:09:57;98397.53;;;28.08;57.44
74958;BME280;63741;42.624;26.276;2023-08-06T12:12:24;98382.03;;;28.51;55.12
74958;BME280;63741;42.624;26.276;2023-08-06T12:14:51;98363.50;;;28.42;54.14
74958;BME280;63741;42.624;26.276;2023-08-06T12:17:18;98375.28;;;28.63;54.87
74958;BME280;63741;42.624;26.276;2023-08-06T12:19:45;98353.59;;;28.89;56.54
74958;BME280;63741;42.624;26.276;2023-08-06T12:22:16;98342.00;;;27.88;58.11
74958;BME280;63741;42.624;26.276;2023-08-06T12:24:45;98333.66;;;28.00;59.10
74958;BME280;63741;42.624;26.276;2023-08-06T12:27:12;98341.00;;;27.67;59.46
74958;BME280;63741;42.624;26.276;2023-08-06T12:29:44;98332.69;;;27.42;60.42
74958;BME280;63741;42.624;26.276;2023-08-06T12:32:11;98342.13;;;28.09;59.59
74958;BME280;63741;42.624;26.276;2023-08-06T12:34:39;98345.47;;;27.79;59.05
74958;BME280;63741;42.624;26.276;2023-08-06T12:37:18;98347.75;;;28.50;57.41
74958;BME280;63741;42.624;26.276;2023-08-06T12:39:46;98341.38;;;29.07;55.04
74958;BME280;63741;42.624;26.276;2023-08-06T12:42:13;98339.75;;;29.16;54.50
74958;BME280;63741;42.624;26.276;2023-08-06T12:44:40;98324.91;;;28.56;55.04
74958;BME280;63741;42.624;26.276;2023-08-06T12:47:08;98318.63;;;28.40;56.66
74958;BME280;63741;42.624;26.276;2023-08-06T12:49:35;98334.03;;;29.28;52.88
74958;BME280;63741;42.624;26.276;2023-08-06T12:52:02;98332.69;;;29.56;52.96
74958;BME280;63741;42.624;26.276;2023-08-06T12:54:31;98336.47;;;29.39;52.52
74958;BME280;63741;42.624;26.276;2023-08-06T12:57:04;98334.59;;;29.35;54.61
74958;BME280;63741;42.624;26.276;2023-08-06T12:59:32;98330.78;;;29.61;54.54
74958;BME280;63741;42.624;26.276;2023-08-06T13:02:06;98330.19;;;29.85;52.73
74958;BME280;63741;42.624;26.276;2023-08-06T13:04:33;98323.75;;;30.35;53.02
74958;BME280;63741;42.624;26.276;2023-08-06T13:07:01;98329.72;;;30.42;50.56
74958;BME280;63741;42.624;26.276;2023-08-06T13:09:27;98334.06;;;30.49;52.22
74958;BME280;63741;42.624;26.276;2023-08-06T13:11:58;98334.03;;;30.59;52.37
74958;BME280;63741;42.624;26.276;2023-08-06T13:14:26;98344.03;;;30.79;51.20
74958;BME280;63741;42.624;26.276;2023-08-06T13:16:55;98339.34;;;30.25;50.22
74958;BME280;63741;42.624;26.276;2023-08-06T13:19:22;98333.69;;;30.06;53.00